Time;durP1;ratioP1;P1;durP2;ratioP2;P2;SDS_P1;SDS_P2;PMS_P1;PMS_P2;Temp;Humidity;BMP_temperature;BMP_pressure;BME280_temperature;BME280_humidity;BME280_pressure;Samples;Min_cycle;Max_cycle;Signal;HPM_P1;HPM_P2
2022/12/09 00:00:27;;;;;;;66.27;31.23;;;0.00;99.90;;;;;;5090978;28;20203;-64
2022/12/09 00:02:56;;;;;;;59.17;29.67;;;-0.10;99.90;;;;;;5086117;28;20220;-64
2022/12/09 00:05:25;;;;;;;53.13;25.90;;;-0.10;99.90;;;;;;5086830;28;20234;-65
2022/12/09 00:07:53;;;;;;;54.07;25.83;;;-0.10;99.90;;;;;;5090936;28;20247;-65
2022/12/09 00:10:22;;;;;;;55.23;28.03;;;-0.10;99.90;;;;;;5091129;28;20241;-65
2022/12/09 00:12:54;;;;;;;59.37;27.67;;;-0.10;99.90;;;;;;5091249;28;20200;-68
2022/12/09 00:15:25;;;;;;;57.07;23.20;;;-0.10;99.90;;;;;;5090811;28;20196;-66
2022/12/09 00:17:53;;;;;;;49.97;24.73;;;-0.20;99.90;;;;;;5090551;28;20215;-65
2022/12/09 00:20:22;;;;;;;60.30;26.87;;;-0.20;99.90;;;;;;5091061;28;20192;-64
2022/12/09 00:22:50;;;;;;;46.53;22.57;;;-0.20;99.90;;;;;;5090649;28;20678;-65
2022/12/09 00:25:19;;;;;;;54.97;28.37;;;-0.20;99.90;;;;;;5090881;28;20773;-75
2022/12/09 00:27:48;;;;;;;56.80;26.27;;;-0.40;99.90;;;;;;5090862;28;20559;-66
2022/12/09 00:30:16;;;;;;;49.13;23.87;;;-0.50;99.90;;;;;;5091880;28;20743;-66
2022/12/09 00:32:46;;;;;;;44.07;22.43;;;-0.50;99.90;;;;;;5093661;28;20246;-66
2022/12/09 00:35:16;;;;;;;54.13;24.90;;;-0.50;99.90;;;;;;5095105;28;20219;-70
2022/12/09 00:37:44;;;;;;;41.27;21.23;;;-0.50;99.90;;;;;;5076817;28;20209;-84
2022/12/09 00:40:16;;;;;;;29.90;15.47;;;-0.50;99.90;;;;;;5093956;28;20227;-85
2022/12/09 00:42:44;;;;;;;60.40;27.07;;;-0.40;99.90;;;;;;5076780;28;20219;-84
2022/12/09 00:45:13;;;;;;;56.47;26.50;;;-0.50;99.90;;;;;;5076474;28;20681;-85
2022/12/09 00:47:41;;;;;;;52.37;24.17;;;-0.50;99.90;;;;;;5094823;28;20188;-86
2022/12/09 00:50:12;;;;;;;43.27;20.07;;;-0.50;99.90;;;;;;5076765;28;20204;-84
2022/12/09 00:52:40;;;;;;;45.10;21.10;;;-0.50;99.90;;;;;;5074615;28;20541;-67
2022/12/09 00:55:10;;;;;;;44.47;21.40;;;-0.50;99.90;;;;;;5094623;28;20251;-73
2022/12/09 00:57:39;;;;;;;40.57;19.40;;;-0.50;99.90;;;;;;5094650;28;20192;-66
2022/12/09 01:00:08;;;;;;;40.20;18.03;;;-0.50;99.90;;;;;;5094395;28;20271;-68
2022/12/09 01:02:37;;;;;;;39.20;18.57;;;-0.60;99.90;;;;;;5094317;28;20189;-76
2022/12/09 01:05:07;;;;;;;41.23;20.80;;;-0.70;99.90;;;;;;5076082;28;20605;-68
2022/12/09 01:07:37;;;;;;;48.30;26.80;;;-0.60;99.90;;;;;;5076297;28;20267;-66
2022/12/09 01:10:07;;;;;;;40.80;20.83;;;-0.70;99.90;;;;;;5076238;28;20238;-65
2022/12/09 01:12:37;;;;;;;41.17;21.93;;;-0.70;99.90;;;;;;5094387;28;20567;-67
2022/12/09 01:15:07;;;;;;;38.50;19.57;;;-0.80;99.90;;;;;;5094253;28;20199;-65
2022/12/09 01:17:36;;;;;;;31.70;16.83;;;-1.00;99.90;;;;;;5094392;28;20203;-66
2022/12/09 01:20:08;;;;;;;38.87;18.40;;;-1.00;99.90;;;;;;5094238;28;20201;-73
2022/12/09 01:22:39;;;;;;;37.83;17.37;;;-1.10;99.90;;;;;;5094159;28;20662;-69
2022/12/09 01:25:08;;;;;;;34.37;15.87;;;-1.20;99.90;;;;;;5094048;28;20192;-77
2022/12/09 01:27:37;;;;;;;26.77;14.23;;;-1.20;99.90;;;;;;5094114;28;20212;-66
2022/12/09 01:30:07;;;;;;;33.10;15.23;;;-1.10;99.90;;;;;;5093991;28;20269;-69
2022/12/09 01:32:36;;;;;;;28.47;15.57;;;-1.10;99.90;;;;;;5093677;28;20184;-66
2022/12/09 01:35:05;;;;;;;30.37;14.60;;;-1.20;99.90;;;;;;5093921;28;20192;-66
2022/12/09 01:37:35;;;;;;;28.50;13.83;;;-1.20;99.90;;;;;;5093733;28;20192;-66
2022/12/09 01:40:09;;;;;;;25.27;13.83;;;-1.30;99.90;;;;;;5094034;28;20200;-65
2022/12/09 01:42:38;;;;;;;26.50;14.20;;;-1.30;99.90;;;;;;5075589;28;20669;-66
2022/12/09 01:45:41;;;;;;;33.57;16.97;;;-1.30;99.90;;;;;;5092799;28;20193;-66
2022/12/09 01:48:12;;;;;;;33.27;16.13;;;-1.30;99.90;;;;;;4992038;28;20295;-65
2022/12/09 01:50:48;;;;;;;33.40;15.03;;;-1.20;99.90;;;;;;4991830;28;20199;-69
2022/12/09 01:53:20;;;;;;;24.53;13.63;;;-1.10;99.90;;;;;;4992119;28;20203;-77
2022/12/09 01:55:50;;;;;;;24.30;13.13;;;-1.20;99.90;;;;;;4991978;28;20210;-66
2022/12/09 01:58:19;;;;;;;25.63;12.70;;;-1.20;99.90;;;;;;4975494;28;20319;-67
2022/12/09 02:00:49;;;;;;;20.03;11.10;;;-1.20;99.90;;;;;;4975424;28;20207;-74
2022/12/09 02:03:21;;;;;;;27.53;11.70;;;-1.30;99.90;;;;;;4975106;28;20663;-65
2022/12/09 02:05:50;;;;;;;28.80;14.50;;;-1.40;99.90;;;;;;4991909;28;20206;-65
2022/12/09 02:08:20;;;;;;;30.87;13.40;;;-1.40;99.90;;;;;;4975267;28;20644;-65
2022/12/09 02:11:04;;;;;;;33.03;15.43;;;-1.40;99.90;;;;;;4991706;28;20208;-69
2022/12/09 02:13:47;;;;;;;26.03;15.90;;;-1.50;99.90;;;;;;4991776;28;20195;-87
2022/12/09 02:16:19;;;;;;;22.77;12.87;;;-1.50;99.90;;;;;;4975490;28;20203;-87
2022/12/09 02:18:54;;;;;;;25.43;12.93;;;-1.60;99.90;;;;;;4991867;28;20231;-85
2022/12/09 02:21:28;;;;;;;24.20;13.10;;;-1.60;99.90;;;;;;4975428;28;20314;-88
2022/12/09 02:24:07;;;;;;;24.10;12.63;;;-1.70;99.90;;;;;;5038565;28;20283;-66
2022/12/09 02:26:41;;;;;;;23.27;12.60;;;-1.70;99.90;;;;;;5074774;28;20219;-67
2022/12/09 02:29:38;;;;;;;21.20;12.07;;;-1.70;99.90;;;;;;5091602;28;20278;-69
2022/12/09 02:32:34;;;;;;;19.77;11.80;;;-1.70;99.90;;;;;;5074393;28;20568;-66
2022/12/09 02:35:14;;;;;;;23.30;12.17;;;-1.70;99.90;;;;;;5074600;28;20196;-69
2022/12/09 02:37:49;;;;;;;20.70;10.67;;;-1.70;99.90;;;;;;5074468;28;20238;-65
2022/12/09 02:40:21;;;;;;;18.47;10.40;;;-1.70;99.90;;;;;;5074409;28;20206;-65
2022/12/09 02:42:51;;;;;;;19.53;10.53;;;-1.70;99.90;;;;;;5091412;28;20230;-66
2022/12/09 02:45:22;;;;;;;21.23;11.13;;;-1.70;99.90;;;;;;5092671;28;20188;-65
2022/12/09 02:47:55;;;;;;;21.60;11.60;;;-1.70;99.90;;;;;;5074357;28;20204;-65
2022/12/09 02:50:29;;;;;;;18.77;10.70;;;-1.70;99.90;;;;;;5074274;28;20307;-65
2022/12/09 02:53:01;;;;;;;20.93;11.47;;;-1.70;99.90;;;;;;5090903;28;20609;-66
2022/12/09 02:55:33;;;;;;;21.80;11.03;;;-1.80;99.90;;;;;;5091130;28;20204;-65
2022/12/09 02:58:02;;;;;;;24.27;13.07;;;-1.80;99.90;;;;;;5092454;28;20200;-68
2022/12/09 03:00:33;;;;;;;29.03;14.70;;;-1.80;99.90;;;;;;5074271;28;20192;-65
2022/12/09 03:03:04;;;;;;;31.07;15.50;;;-1.80;99.90;;;;;;5087813;28;20262;-66
2022/12/09 03:05:44;;;;;;;26.13;13.07;;;-1.90;99.90;;;;;;5089303;28;20210;-66
2022/12/09 03:08:19;;;;;;;22.73;13.10;;;-2.00;99.90;;;;;;5092359;28;20222;-65
2022/12/09 03:10:55;;;;;;;27.10;14.67;;;-2.00;99.90;;;;;;5092169;28;20277;-67
2022/12/09 03:13:41;;;;;;;22.60;13.07;;;-2.00;99.90;;;;;;5092215;28;20619;-65
2022/12/09 03:16:15;;;;;;;17.40;10.70;;;-2.00;99.90;;;;;;5092021;28;20188;-83
2022/12/09 03:18:50;;;;;;;29.97;14.60;;;-2.10;99.90;;;;;;5092172;28;20727;-65
2022/12/09 03:21:22;;;;;;;36.37;18.03;;;-2.20;99.90;;;;;;5091899;28;20221;-64
2022/12/09 03:23:53;;;;;;;29.60;16.33;;;-2.20;99.90;;;;;;5091911;28;20192;-65
2022/12/09 03:26:24;;;;;;;29.07;15.87;;;-2.10;99.90;;;;;;5091828;28;20200;-65
2022/12/09 03:28:56;;;;;;;31.10;15.23;;;-2.10;99.90;;;;;;5091908;28;20208;-67
2022/12/09 03:31:28;;;;;;;18.77;10.27;;;-2.10;99.90;;;;;;5091723;28;20227;-65
2022/12/09 03:34:00;;;;;;;18.07;10.37;;;-2.10;99.90;;;;;;5091736;28;20206;-70
2022/12/09 03:36:36;;;;;;;15.70;9.10;;;-2.30;99.90;;;;;;5091918;28;20200;-65
2022/12/09 03:39:07;;;;;;;15.50;10.00;;;-2.40;99.90;;;;;;5091818;28;20195;-67
2022/12/09 03:41:44;;;;;;;16.73;9.77;;;-2.50;99.90;;;;;;5073829;28;20596;-70
2022/12/09 03:44:19;;;;;;;18.03;10.80;;;-2.50;99.90;;;;;;5091613;28;20236;-66
2022/12/09 03:46:48;;;;;;;15.63;9.73;;;-2.50;99.90;;;;;;5091594;28;20727;-83
2022/12/09 03:49:17;;;;;;;13.67;8.37;;;-2.50;99.90;;;;;;5091591;28;20202;-69
2022/12/09 03:51:51;;;;;;;14.33;8.63;;;-2.60;99.90;;;;;;5091662;28;20188;-65
2022/12/09 03:54:24;;;;;;;16.17;8.77;;;-2.70;99.90;;;;;;5091832;28;20291;-66
2022/12/09 03:56:56;;;;;;;15.50;8.43;;;-2.80;99.90;;;;;;5073486;28;20625;-71
2022/12/09 03:59:28;;;;;;;13.83;8.90;;;-2.80;99.90;;;;;;5091733;28;20210;-70
2022/12/09 04:01:57;;;;;;;15.97;9.33;;;-2.80;99.90;;;;;;5091394;28;20557;-66
2022/12/09 04:04:27;;;;;;;19.17;9.83;;;-2.80;99.90;;;;;;5091285;28;20638;-86
2022/12/09 04:06:59;;;;;;;15.63;9.07;;;-2.80;99.90;;;;;;5092291;28;20673;-83
2022/12/09 04:09:28;;;;;;;14.13;9.07;;;-2.80;99.90;;;;;;5094702;28;20286;-66
2022/12/09 04:11:57;;;;;;;18.70;9.10;;;-2.90;99.90;;;;;;5095472;28;20193;-65
2022/12/09 04:14:26;;;;;;;14.27;8.73;;;-3.00;99.90;;;;;;5095472;28;20283;-65
2022/12/09 04:16:54;;;;;;;14.27;8.87;;;-2.90;99.90;;;;;;5095269;28;20212;-70
2022/12/09 04:19:23;;;;;;;15.63;8.83;;;-2.90;99.90;;;;;;5095251;28;20195;-64
2022/12/09 04:21:51;;;;;;;14.13;8.93;;;-3.00;99.90;;;;;;5095284;28;20571;-67
2022/12/09 04:24:21;;;;;;;13.97;8.70;;;-3.00;99.90;;;;;;5095123;28;20197;-69
2022/12/09 04:26:50;;;;;;;13.20;8.13;;;-3.00;99.90;;;;;;5095139;28;20200;-65
2022/12/09 04:29:19;;;;;;;15.47;8.60;;;-3.10;99.90;;;;;;5095047;28;20199;-65
2022/12/09 04:31:48;;;;;;;16.17;8.97;;;-3.20;99.90;;;;;;5076887;28;20238;-68
2022/12/09 04:34:16;;;;;;;14.57;8.70;;;-3.20;99.90;;;;;;5094969;28;20192;-66
2022/12/09 04:36:45;;;;;;;14.40;9.00;;;-3.20;99.90;;;;;;5095109;28;20248;-67
2022/12/09 04:39:13;;;;;;;14.20;8.33;;;-3.10;99.90;;;;;;5094898;28;20283;-81
2022/12/09 04:41:43;;;;;;;12.87;8.17;;;-3.00;99.90;;;;;;5094746;28;20203;-64
2022/12/09 04:44:12;;;;;;;14.53;8.97;;;-2.90;99.90;;;;;;5094735;28;20204;-79
2022/12/09 04:46:41;;;;;;;13.87;9.27;;;-2.90;99.90;;;;;;5094723;28;20570;-69
2022/12/09 04:49:10;;;;;;;14.07;8.20;;;-2.80;99.90;;;;;;5076542;28;20200;-66
2022/12/09 04:51:39;;;;;;;13.07;8.30;;;-2.90;99.90;;;;;;5094497;28;20221;-71
2022/12/09 04:54:12;;;;;;;11.83;8.33;;;-2.90;99.90;;;;;;5094606;28;20210;-65
2022/12/09 04:56:42;;;;;;;14.60;8.93;;;-2.90;99.90;;;;;;5094505;28;20201;-65
2022/12/09 04:59:11;;;;;;;13.17;8.90;;;-3.00;99.90;;;;;;5094519;28;20220;-66
2022/12/09 05:01:40;;;;;;;14.23;8.77;;;-3.10;99.90;;;;;;5094250;28;20573;-66
2022/12/09 05:04:09;;;;;;;15.37;9.07;;;-3.30;99.90;;;;;;5094079;28;20277;-65
2022/12/09 05:06:38;;;;;;;16.50;9.43;;;-3.40;99.90;;;;;;5076248;28;20289;-66
2022/12/09 05:09:11;;;;;;;14.00;9.17;;;-3.40;99.90;;;;;;5094138;28;20203;-65
2022/12/09 05:11:45;;;;;;;14.87;8.73;;;-3.40;99.90;;;;;;5094382;28;20591;-67
2022/12/09 05:14:14;;;;;;;14.47;8.13;;;-3.40;99.90;;;;;;5094202;28;20295;-64
2022/12/09 05:16:43;;;;;;;15.47;8.23;;;-3.40;99.90;;;;;;5094163;28;20206;-64
2022/12/09 05:19:11;;;;;;;13.33;7.70;;;-3.50;99.90;;;;;;5092692;28;20220;-64
2022/12/09 05:21:42;;;;;;;11.30;7.73;;;-3.50;99.90;;;;;;5094169;28;20258;-64
2022/12/09 05:24:11;;;;;;;13.30;8.30;;;-3.50;99.90;;;;;;5094106;28;20196;-64
2022/12/09 05:26:40;;;;;;;12.00;7.77;;;-3.50;99.90;;;;;;5075884;28;20747;-67
2022/12/09 05:29:10;;;;;;;11.40;8.17;;;-3.50;99.90;;;;;;5094125;28;20664;-65
2022/12/09 05:31:42;;;;;;;14.20;8.63;;;-3.50;99.90;;;;;;5093854;28;20235;-64
2022/12/09 05:34:11;;;;;;;14.53;8.83;;;-3.50;99.90;;;;;;5094187;28;20198;-65
2022/12/09 05:36:39;;;;;;;14.77;8.40;;;-3.40;99.90;;;;;;5075709;28;20582;-65
2022/12/09 05:39:08;;;;;;;13.93;9.07;;;-3.50;99.90;;;;;;5093995;28;20205;-78
2022/12/09 05:41:37;;;;;;;15.90;8.57;;;-3.50;99.90;;;;;;5093853;28;20198;-67
2022/12/09 05:44:06;;;;;;;15.00;8.00;;;-3.60;99.90;;;;;;5094032;28;20576;-65
2022/12/09 05:46:36;;;;;;;17.33;8.93;;;-3.60;99.90;;;;;;5093876;28;20267;-63
2022/12/09 05:49:05;;;;;;;18.07;9.30;;;-3.70;99.90;;;;;;5093575;28;20225;-64
2022/12/09 05:51:34;;;;;;;24.03;12.67;;;-3.70;99.90;;;;;;5093597;28;20241;-65
2022/12/09 05:54:04;;;;;;;12.70;8.73;;;-3.70;99.90;;;;;;5093638;28;20206;-68
2022/12/09 05:56:33;;;;;;;14.33;8.10;;;-3.70;99.90;;;;;;5093719;28;20302;-64
2022/12/09 05:59:02;;;;;;;17.77;9.40;;;-3.70;99.90;;;;;;5093540;28;20697;-64
2022/12/09 06:01:31;;;;;;;18.03;9.23;;;-3.70;99.90;;;;;;5093503;28;20210;-63
2022/12/09 06:04:02;;;;;;;13.60;8.40;;;-3.80;99.90;;;;;;5092916;28;20224;-64
2022/12/09 06:06:31;;;;;;;19.23;9.67;;;-3.80;99.90;;;;;;5093380;28;20258;-66
2022/12/09 06:09:01;;;;;;;13.77;8.63;;;-3.80;99.90;;;;;;5093264;28;20192;-64
2022/12/09 06:11:31;;;;;;;18.03;8.87;;;-3.80;99.90;;;;;;5093163;28;20222;-64
2022/12/09 06:14:00;;;;;;;14.47;8.70;;;-3.80;99.90;;;;;;5093544;28;20194;-67
2022/12/09 06:16:29;;;;;;;14.87;8.83;;;-3.80;99.90;;;;;;5093098;28;20654;-64
2022/12/09 06:18:58;;;;;;;16.23;8.63;;;-3.90;99.90;;;;;;5092918;28;20199;-64
2022/12/09 06:21:28;;;;;;;18.67;9.40;;;-3.80;99.90;;;;;;5093161;28;20196;-64
2022/12/09 06:23:57;;;;;;;16.30;9.80;;;-3.80;99.90;;;;;;5093029;28;20206;-64
2022/12/09 06:26:28;;;;;;;17.60;9.33;;;-3.70;99.90;;;;;;5092788;28;20277;-64
2022/12/09 06:28:58;;;;;;;16.50;9.80;;;-3.70;99.90;;;;;;5092896;28;20223;-65
2022/12/09 06:31:28;;;;;;;16.20;10.10;;;-3.60;99.90;;;;;;5092350;28;20247;-64
2022/12/09 06:33:57;;;;;;;16.27;8.90;;;-3.50;99.90;;;;;;5092602;28;20208;-64
2022/12/09 06:36:30;;;;;;;18.73;11.10;;;-3.50;99.90;;;;;;5074610;28;20229;-64
2022/12/09 06:39:01;;;;;;;18.13;10.83;;;-3.40;99.90;;;;;;5092647;28;20214;-65
2022/12/09 06:41:37;;;;;;;17.40;9.83;;;-3.40;99.90;;;;;;5092459;28;20564;-65
2022/12/09 06:44:06;;;;;;;19.23;10.90;;;-3.40;99.90;;;;;;5092625;28;20193;-64
2022/12/09 06:46:35;;;;;;;19.07;10.00;;;-3.40;99.90;;;;;;5092622;28;20536;-65
2022/12/09 06:49:04;;;;;;;20.93;11.53;;;-3.40;99.90;;;;;;5092753;28;20208;-64
2022/12/09 06:51:34;;;;;;;24.63;11.90;;;-3.30;99.90;;;;;;5092659;28;20279;-64
2022/12/09 06:54:03;;;;;;;17.73;10.23;;;-3.30;99.90;;;;;;5092285;28;20200;-67
2022/12/09 06:56:32;;;;;;;15.77;10.20;;;-3.30;99.90;;;;;;5070995;28;20204;-67
2022/12/09 06:59:05;;;;;;;22.17;11.93;;;-3.30;99.90;;;;;;5092162;28;20188;-69
2022/12/09 07:01:34;;;;;;;18.33;9.90;;;-3.30;99.90;;;;;;5074147;28;20279;-64
2022/12/09 07:04:04;;;;;;;24.23;12.33;;;-3.20;99.90;;;;;;5083502;28;20235;-63
2022/12/09 07:06:36;;;;;;;19.23;11.13;;;-3.20;99.90;;;;;;5092245;28;20244;-82
2022/12/09 07:09:08;;;;;;;22.93;11.90;;;-3.10;99.90;;;;;;5091833;28;20580;-64
2022/12/09 07:11:39;;;;;;;25.10;12.30;;;-3.10;99.90;;;;;;5091507;28;20234;-68
2022/12/09 07:14:07;;;;;;;56.63;26.00;;;-2.90;99.90;;;;;;5091283;28;20277;-70
2022/12/09 07:16:36;;;;;;;106.37;45.63;;;-2.90;99.90;;;;;;5092525;28;20204;-63
2022/12/09 07:19:05;;;;;;;32.17;15.87;;;-2.80;99.90;;;;;;5103507;28;20202;-63
2022/12/09 07:21:36;;;;;;;78.73;35.73;;;-2.70;99.90;;;;;;5112875;28;20665;-63
2022/12/09 07:24:06;;;;;;;38.73;19.47;;;-2.60;99.90;;;;;;5094326;28;20225;-63
2022/12/09 07:26:34;;;;;;;22.73;12.97;;;-2.50;99.90;;;;;;5112022;28;20195;-63
2022/12/09 07:29:04;;;;;;;26.13;13.57;;;-2.40;99.90;;;;;;5112939;28;20197;-64
2022/12/09 07:31:34;;;;;;;22.63;12.27;;;-2.50;99.90;;;;;;5112442;28;20225;-64
2022/12/09 07:34:03;;;;;;;21.90;12.53;;;-2.50;99.90;;;;;;5112667;28;20210;-63
2022/12/09 07:36:37;;;;;;;24.10;12.33;;;-2.60;99.90;;;;;;5112561;28;20593;-63
2022/12/09 07:39:08;;;;;;;19.27;11.23;;;-2.60;99.90;;;;;;5112781;28;20604;-65
2022/12/09 07:41:36;;;;;;;21.23;11.67;;;-2.50;99.90;;;;;;5111508;28;20210;-63
2022/12/09 07:44:05;;;;;;;35.53;18.60;;;-2.50;99.90;;;;;;5112590;28;20233;-63
2022/12/09 07:46:34;;;;;;;41.47;23.27;;;-2.50;99.90;;;;;;5112282;28;20274;-64
2022/12/09 07:49:04;;;;;;;60.77;32.10;;;-2.60;99.90;;;;;;5112471;28;20732;-63
2022/12/09 07:51:33;;;;;;;47.03;25.77;;;-2.60;99.90;;;;;;5112484;28;20214;-63
2022/12/09 07:54:04;;;;;;;53.30;24.13;;;-2.60;99.90;;;;;;5112390;28;20670;-64
2022/12/09 07:56:33;;;;;;;44.17;22.10;;;-2.60;99.90;;;;;;5111850;28;20204;-66
2022/12/09 07:59:05;;;;;;;53.93;24.03;;;-2.60;99.90;;;;;;5112211;28;20227;-66
2022/12/09 08:01:34;;;;;;;45.87;22.03;;;-2.60;99.90;;;;;;5110524;28;20209;-68
2022/12/09 08:04:05;;;;;;;45.63;20.70;;;-2.60;99.90;;;;;;5111844;28;20220;-64
2022/12/09 08:06:35;;;;;;;34.90;15.50;;;-2.60;99.90;;;;;;5112074;28;20196;-64
2022/12/09 08:09:08;;;;;;;39.07;16.90;;;-2.70;99.90;;;;;;5112374;28;20199;-64
2022/12/09 08:11:36;;;;;;;34.23;15.33;;;-2.60;99.90;;;;;;5110366;28;20208;-64
2022/12/09 08:14:08;;;;;;;35.43;15.73;;;-2.60;99.90;;;;;;5112242;28;20191;-65
2022/12/09 08:16:40;;;;;;;35.43;16.60;;;-2.50;99.90;;;;;;5112122;28;20196;-65
2022/12/09 08:19:10;;;;;;;44.73;19.27;;;-2.40;99.90;;;;;;5111935;28;20639;-67
2022/12/09 08:21:39;;;;;;;31.87;16.67;;;-2.30;99.90;;;;;;5112188;28;20247;-66
2022/12/09 08:24:11;;;;;;;39.30;17.70;;;-2.30;99.90;;;;;;5112191;28;20222;-65
2022/12/09 08:26:40;;;;;;;32.60;16.43;;;-2.20;99.90;;;;;;5111475;28;20203;-69
2022/12/09 08:29:11;;;;;;;33.27;17.13;;;-2.20;99.90;;;;;;5110993;28;20691;-64
2022/12/09 08:31:41;;;;;;;35.67;16.00;;;-2.20;99.90;;;;;;5112029;28;20282;-65
2022/12/09 08:34:11;;;;;;;43.97;17.60;;;-2.20;99.90;;;;;;5111889;28;20266;-64
2022/12/09 08:36:41;;;;;;;38.73;16.57;;;-2.20;99.90;;;;;;5111675;28;20191;-65
2022/12/09 08:39:12;;;;;;;39.27;16.77;;;-2.30;99.90;;;;;;5111449;28;20190;-64
2022/12/09 08:41:42;;;;;;;37.47;16.30;;;-2.20;99.90;;;;;;5111921;28;20221;-64
2022/12/09 08:44:12;;;;;;;42.67;18.40;;;-2.20;99.90;;;;;;5111760;28;20196;-64
2022/12/09 08:46:43;;;;;;;36.77;17.93;;;-2.10;99.90;;;;;;5112003;28;20215;-65
2022/12/09 08:49:16;;;;;;;42.53;17.17;;;-2.10;99.90;;;;;;5111356;28;20258;-64
2022/12/09 08:51:47;;;;;;;41.73;18.33;;;-2.00;99.90;;;;;;5111743;28;20202;-64
2022/12/09 08:54:17;;;;;;;42.03;18.83;;;-2.00;99.90;;;;;;5113991;28;20211;-70
2022/12/09 08:56:46;;;;;;;38.97;18.30;;;-2.00;99.90;;;;;;5115297;28;20661;-69
2022/12/09 08:59:15;;;;;;;50.40;19.53;;;-1.90;99.90;;;;;;5115587;28;20190;-79
2022/12/09 09:01:44;;;;;;;44.20;19.83;;;-1.90;99.90;;;;;;5115685;28;20199;-70
2022/12/09 09:04:15;;;;;;;38.87;18.53;;;-1.80;99.90;;;;;;5105645;28;20311;-77
2022/12/09 09:06:47;;;;;;;39.90;18.27;;;-1.70;99.90;;;;;;5094619;28;20282;-68
2022/12/09 09:09:17;;;;;;;46.27;20.97;;;-1.60;99.90;;;;;;5094602;28;20600;-65
2022/12/09 09:11:46;;;;;;;50.93;23.77;;;-1.50;99.90;;;;;;5095091;28;20206;-64
2022/12/09 09:14:15;;;;;;;53.67;26.30;;;-1.40;99.90;;;;;;5093816;28;20303;-84
2022/12/09 09:16:45;;;;;;;60.03;28.20;;;-1.20;99.90;;;;;;5068950;28;20648;-75
2022/12/09 09:19:17;;;;;;;78.63;35.70;;;-1.10;99.90;;;;;;5072510;28;20534;-64
2022/12/09 09:21:45;;;;;;;73.10;33.80;;;-1.00;99.90;;;;;;5056679;28;20204;-64
2022/12/09 09:24:17;;;;;;;70.83;32.87;;;-1.00;99.90;;;;;;5074153;28;20193;-74
2022/12/09 09:26:47;;;;;;;75.53;33.63;;;-1.00;99.90;;;;;;5071632;28;20276;-75
2022/12/09 09:29:18;;;;;;;68.20;33.40;;;-0.90;99.90;;;;;;5063360;28;20190;-66
2022/12/09 09:31:48;;;;;;;68.10;31.20;;;-0.80;99.90;;;;;;5054392;28;20193;-65
2022/12/09 09:34:17;;;;;;;67.87;33.57;;;-0.60;99.90;;;;;;5054110;28;20307;-65
2022/12/09 09:36:47;;;;;;;68.40;29.93;;;-0.40;99.90;;;;;;5053789;28;20189;-66
2022/12/09 09:39:17;;;;;;;66.47;30.07;;;-0.30;99.90;;;;;;5054229;28;20240;-66
2022/12/09 09:41:51;;;;;;;51.93;25.33;;;-0.40;99.90;;;;;;5054238;28;20197;-65
2022/12/09 09:44:25;;;;;;;51.87;26.47;;;-0.30;99.90;;;;;;5054126;28;20278;-77
2022/12/09 09:46:56;;;;;;;53.80;25.77;;;-0.20;99.90;;;;;;5053876;28;20271;-65
2022/12/09 09:49:32;;;;;;;52.97;22.87;;;-0.20;99.90;;;;;;5071482;28;20209;-70
2022/12/09 09:52:06;;;;;;;54.73;27.03;;;-0.10;99.90;;;;;;5073645;28;20216;-66
2022/12/09 09:54:36;;;;;;;89.73;35.83;;;0.00;99.90;;;;;;5073514;28;20658;-66
2022/12/09 09:57:13;;;;;;;60.87;28.80;;;0.10;99.90;;;;;;5073512;28;20299;-74
2022/12/09 09:59:55;;;;;;;56.40;26.37;;;0.30;99.90;;;;;;5068216;28;20200;-68
2022/12/09 10:02:45;;;;;;;40.60;21.63;;;0.20;99.90;;;;;;5053831;28;20316;-66
2022/12/09 10:05:22;;;;;;;39.27;20.80;;;0.20;99.90;;;;;;5098285;28;20237;-81
2022/12/09 10:07:56;;;;;;;36.27;17.93;;;0.10;99.90;;;;;;5113407;28;20238;-66
2022/12/09 10:10:38;;;;;;;35.83;17.70;;;0.00;99.90;;;;;;5114290;28;20638;-65
2022/12/09 10:13:25;;;;;;;33.43;16.27;;;-0.10;99.90;;;;;;5113402;28;20208;-64
2022/12/09 10:16:02;;;;;;;34.47;17.77;;;0.00;99.90;;;;;;5113599;28;20199;-68
2022/12/09 10:18:38;;;;;;;32.50;17.27;;;-0.10;99.90;;;;;;5113128;28;20207;-64
2022/12/09 10:21:16;;;;;;;54.17;24.50;;;-0.10;99.90;;;;;;5113536;28;20692;-64
2022/12/09 10:23:46;;;;;;;41.00;19.20;;;-0.10;99.90;;;;;;5113467;28;20206;-65
2022/12/09 10:26:22;;;;;;;34.77;18.87;;;-0.10;99.90;;;;;;5113122;28;20215;-64
2022/12/09 10:29:03;;;;;;;39.57;18.70;;;-0.20;99.90;;;;;;5111388;28;20207;-64
2022/12/09 10:31:32;;;;;;;44.50;20.07;;;-0.20;99.90;;;;;;5113096;28;20195;-65
2022/12/09 10:34:01;;;;;;;38.93;19.40;;;-0.10;99.90;;;;;;5112817;28;20266;-74
2022/12/09 10:36:32;;;;;;;52.27;27.67;;;0.00;99.90;;;;;;5098917;28;20704;-64
2022/12/09 10:39:04;;;;;;;60.80;32.00;;;0.20;99.90;;;;;;5092629;28;20201;-75
2022/12/09 10:44:30;;;;;;;46.10;22.83;;;0.60;99.90;;;;;;5091996;28;20184;-71
2022/12/09 10:47:02;;;;;;;38.67;19.87;;;0.70;99.90;;;;;;5098354;28;20726;-69
2022/12/09 10:49:33;;;;;;;41.83;21.47;;;0.60;99.90;;;;;;5071466;28;20301;-68
2022/12/09 10:52:03;;;;;;;44.70;24.53;;;0.60;99.90;;;;;;5107551;28;20206;-66
2022/12/09 10:54:38;;;;;;;50.47;25.57;;;0.60;99.90;;;;;;5092320;28;20274;-64
2022/12/09 10:57:27;;;;;;;45.37;22.03;;;0.70;99.90;;;;;;5092319;28;20679;-64
2022/12/09 11:00:00;;;;;;;43.17;22.43;;;0.80;99.90;;;;;;5092256;28;20204;-63
2022/12/09 11:02:30;;;;;;;43.10;20.80;;;0.80;99.90;;;;;;5092310;28;20206;-69
2022/12/09 11:05:17;;;;;;;38.17;18.97;;;0.80;99.90;;;;;;5092219;28;20221;-65
2022/12/09 11:07:49;;;;;;;43.63;20.67;;;0.70;99.90;;;;;;5091995;28;20246;-64
2022/12/09 11:10:20;;;;;;;33.43;19.17;;;0.60;99.90;;;;;;5092263;28;20258;-65
2022/12/09 11:12:54;;;;;;;31.53;17.47;;;0.50;99.90;;;;;;5092100;28;20673;-67
2022/12/09 11:15:29;;;;;;;35.87;18.30;;;0.40;99.90;;;;;;5092094;28;20216;-65
2022/12/09 11:18:02;;;;;;;32.70;17.40;;;0.40;99.90;;;;;;5092206;28;20291;-65
2022/12/09 11:20:33;;;;;;;31.27;17.17;;;0.30;99.90;;;;;;5092092;28;20278;-65
2022/12/09 11:23:05;;;;;;;34.80;18.57;;;0.20;99.90;;;;;;5091578;28;20200;-64
2022/12/09 11:25:36;;;;;;;38.40;19.90;;;0.10;99.90;;;;;;5092114;28;20204;-65
2022/12/09 11:28:25;;;;;;;37.33;18.80;;;0.10;99.90;;;;;;5091592;28;20677;-65
2022/12/09 11:30:57;;;;;;;37.00;19.23;;;0.10;99.90;;;;;;5092025;28;20254;-65
2022/12/09 11:33:51;;;;;;;36.20;18.63;;;0.10;99.90;;;;;;5091589;28;20220;-65
2022/12/09 11:36:23;;;;;;;37.90;18.57;;;0.10;99.90;;;;;;5091634;28;20287;-67
2022/12/09 11:38:55;;;;;;;38.00;19.37;;;0.20;99.90;;;;;;5092026;28;20281;-67
2022/12/09 11:44:24;;;;;;;32.43;16.10;;;0.30;99.90;;;;;;5049425;28;20248;-65
2022/12/09 11:47:00;;;;;;;28.50;14.80;;;0.40;99.90;;;;;;5049228;28;20205;-65
2022/12/09 11:49:31;;;;;;;26.53;14.10;;;0.40;99.90;;;;;;5049202;28;20216;-71
2022/12/09 11:52:21;;;;;;;26.17;14.67;;;0.40;99.90;;;;;;5049263;28;20208;-65
2022/12/09 11:54:56;;;;;;;25.37;14.83;;;0.10;99.90;;;;;;5049268;28;20576;-65
2022/12/09 11:57:35;;;;;;;31.13;14.73;;;-0.10;99.90;;;;;;5048634;28;20233;-67
2022/12/09 12:00:16;;;;;;;21.90;14.03;;;0.00;99.90;;;;;;5049334;28;20545;-64
2022/12/09 12:02:49;;;;;;;27.63;15.50;;;0.10;99.90;;;;;;5046873;28;20206;-65
2022/12/09 12:05:23;;;;;;;25.07;14.27;;;0.20;99.90;;;;;;5029192;28;20229;-65
2022/12/09 12:08:03;;;;;;;33.83;14.13;;;0.20;99.90;;;;;;5029144;28;20198;-70
2022/12/09 12:10:36;;;;;;;24.53;13.73;;;0.20;99.90;;;;;;5029482;28;20630;-65
2022/12/09 12:13:15;;;;;;;23.50;13.77;;;0.20;99.90;;;;;;5029227;28;20280;-65
2022/12/09 12:15:50;;;;;;;29.97;14.33;;;0.20;99.90;;;;;;5029171;28;20244;-65
2022/12/09 12:18:20;;;;;;;23.53;13.87;;;0.10;99.90;;;;;;5029003;28;20236;-66
2022/12/09 12:21:18;;;;;;;20.57;12.27;;;0.20;99.90;;;;;;5037482;28;20197;-69
2022/12/09 12:24:09;;;;;;;23.60;13.00;;;0.20;99.90;;;;;;5069274;28;20615;-67
2022/12/09 12:26:46;;;;;;;26.37;15.13;;;0.30;99.90;;;;;;5048635;28;20204;-65
2022/12/09 12:29:25;;;;;;;39.13;20.20;;;0.50;99.90;;;;;;5069764;28;20246;-66
2022/12/09 12:32:15;;;;;;;38.33;20.20;;;0.60;99.90;;;;;;5075201;28;20197;-66
2022/12/09 12:34:56;;;;;;;37.03;19.73;;;0.70;99.90;;;;;;5066792;28;20256;-67
2022/12/09 12:37:39;;;;;;;35.90;19.23;;;0.70;99.90;;;;;;5073694;28;20200;-73
2022/12/09 12:40:15;;;;;;;40.80;22.03;;;0.70;99.90;;;;;;5057365;28;20568;-66
2022/12/09 12:49:04;;;;;;;27.13;15.77;;;0.70;99.90;;;;;;5074527;28;20218;-68
2022/12/09 12:51:42;;;;;;;24.33;15.03;;;0.70;99.90;;;;;;4971789;28;20240;-66
2022/12/09 12:54:19;;;;;;;25.30;15.23;;;0.60;99.90;;;;;;4972363;28;20310;-67
2022/12/09 12:56:57;;;;;;;31.93;16.83;;;0.60;99.90;;;;;;4993483;28;20203;-66
2022/12/09 12:59:33;;;;;;;34.23;17.10;;;0.60;99.90;;;;;;4993514;28;20289;-66
2022/12/09 13:02:09;;;;;;;27.90;16.13;;;0.50;99.90;;;;;;4992990;28;20295;-68
2022/12/09 13:04:45;;;;;;;27.73;15.63;;;0.50;99.90;;;;;;5018782;28;20757;-66
2022/12/09 13:07:22;;;;;;;35.47;19.53;;;0.50;99.90;;;;;;5031934;28;20210;-66